Prairie City, Iowa
Current Conditions -  °F | °C
As of 9:15 PM on Monday 26 Jan 2015 (Local Time) from KTNU Reporting Station
Overcast Overcast  
Wind Chill: 31°   Ceiling: 3300
Heat Index: 39°   Visibility: 10mi
Dew Point: 36°   Wind: 15mph
Humidity: 87%   Direction: 340°NNW
Pressure: 29.94"   Gusts: NA
Location:  41.6°N, 93.24°W
Report Text: KTNU 270315Z AUTO 34013KT 10SM OVC033 04/02 A2994 RMK AO2
Loading
Personal Weather Stations






























Interactive Weather Map New forecast layout! Learn more

10-Day Weather Forecast

Advertisements
Track Severe Weather on mobile